N78EZ KJZI-KFLL
Flight info
| Callsign | N78EZ |
|---|---|
| Flight time | N/A |
| Altitude | 2500 |
| Route | NONE |
| Aircraft | TBM9/L-V/N |
Departure
| Time | 2026-04-24 23:12 |
|---|---|
| Airport | Charleston Executive Airport (KJZI) |
Arrival
| Time | N/A |
|---|---|
| Airport | Fort Lauderdale Hollywood International Airport (KFLL) |
| Time | Latitude | Longitude | Altitude | Speed | Heading |
|---|---|---|---|---|---|
| 2026-04-24 22:48 | 32.69871 | -80.00841 | 24 ft | 0 kts | 2° |
| 2026-04-24 23:01 | 32.69882 | -80.00831 | 26 ft | 5 kts | 85° |
| 2026-04-24 23:01 | 32.69887 | -80.00770 | 23 ft | 9 kts | 81° |
| 2026-04-24 23:01 | 32.69902 | -80.00702 | 24 ft | 8 kts | 73° |
| 2026-04-24 23:01 | 32.69950 | -80.00681 | 24 ft | 8 kts | 359° |
| 2026-04-24 23:02 | 32.70011 | -80.00683 | 24 ft | 9 kts | 358° |
| 2026-04-24 23:02 | 32.70082 | -80.00684 | 24 ft | 11 kts | 0° |
| 2026-04-24 23:02 | 32.70167 | -80.00685 | 23 ft | 13 kts | 359° |
| 2026-04-24 23:02 | 32.70265 | -80.00687 | 21 ft | 15 kts | 360° |
| 2026-04-24 23:03 | 32.70353 | -80.00688 | 16 ft | 0 kts | 358° |
| 2026-04-24 23:04 | 32.70354 | -80.00688 | 16 ft | 1 kts | 358° |
| 2026-04-24 23:04 | 32.70385 | -80.00654 | 15 ft | 11 kts | 92° |
| 2026-04-24 23:04 | 32.70385 | -80.00547 | 17 ft | 15 kts | 86° |
| 2026-04-24 23:05 | 32.70387 | -80.00385 | 18 ft | 25 kts | 89° |
| 2026-04-24 23:05 | 32.70390 | -80.00136 | 19 ft | 35 kts | 90° |
| 2026-04-24 23:05 | 32.70391 | -79.99854 | 19 ft | 34 kts | 90° |
| 2026-04-24 23:05 | 32.70390 | -79.99662 | 17 ft | 10 kts | 90° |
| 2026-04-24 23:06 | 32.70399 | -79.99661 | 17 ft | 7 kts | 252° |
| 2026-04-24 23:06 | 32.70394 | -79.99725 | 17 ft | 9 kts | 269° |
| 2026-04-24 23:06 | 32.70385 | -79.99795 | 18 ft | 9 kts | 226° |
| 2026-04-24 23:06 | 32.70324 | -79.99805 | 18 ft | 10 kts | 168° |
| 2026-04-24 23:07 | 32.70290 | -79.99764 | 18 ft | 0 kts | 124° |
| 2026-04-24 23:07 | 32.70255 | -79.99733 | 18 ft | 7 kts | 216° |
| 2026-04-24 23:08 | 32.70202 | -79.99774 | 17 ft | 11 kts | 212° |
| 2026-04-24 23:08 | 32.70134 | -79.99825 | 14 ft | 0 kts | 212° |
| 2026-04-24 23:11 | 32.69984 | -79.99937 | 14 ft | 51 kts | 211° |
| 2026-04-24 23:12 | 32.69579 | -80.00225 | 59 ft | 78 kts | 211° |
| 2026-04-24 23:12 | 32.69107 | -80.00549 | 244 ft | 77 kts | 211° |
| 2026-04-24 23:12 | 32.68639 | -80.00838 | 449 ft | 76 kts | 207° |
| 2026-04-24 23:12 | 32.68179 | -80.01113 | 640 ft | 75 kts | 226° |
| 2026-04-24 23:13 | 32.68002 | -80.01694 | 798 ft | 77 kts | 274° |
| 2026-04-24 23:13 | 32.68114 | -80.02342 | 917 ft | 85 kts | 280° |
| 2026-04-24 23:13 | 32.68217 | -80.03032 | 1119 ft | 81 kts | 277° |
| 2026-04-24 23:13 | 32.68274 | -80.03694 | 1294 ft | 83 kts | 279° |
| 2026-04-24 23:14 | 32.68371 | -80.04432 | 1295 ft | 101 kts | 278° |
| 2026-04-24 23:14 | 32.68487 | -80.05299 | 1282 ft | 110 kts | 279° |
| 2026-04-24 23:14 | 32.68616 | -80.06201 | 1287 ft | 113 kts | 279° |
| 2026-04-24 23:14 | 32.68757 | -80.07142 | 1263 ft | 128 kts | 280° |
| 2026-04-24 23:15 | 32.68946 | -80.08406 | 1112 ft | 178 kts | 281° |
| 2026-04-24 23:15 | 32.69211 | -80.09976 | 1085 ft | 207 kts | 282° |
| 2026-04-24 23:15 | 32.69553 | -80.11712 | 1092 ft | 223 kts | 284° |
| 2026-04-24 23:15 | 32.69968 | -80.13509 | 1237 ft | 227 kts | 293° |
| 2026-04-24 23:16 | 32.70999 | -80.14902 | 1400 ft | 231 kts | 324° |
| 2026-04-24 23:16 | 32.72172 | -80.16154 | 1747 ft | 223 kts | 310° |
| 2026-04-24 23:16 | 32.73080 | -80.17646 | 1979 ft | 225 kts | 313° |
| 2026-04-24 23:16 | 32.74242 | -80.18956 | 1991 ft | 234 kts | 317° |
| 2026-04-24 23:17 | 32.75479 | -80.20260 | 2006 ft | 240 kts | 319° |
| 2026-04-24 23:17 | 32.76773 | -80.21541 | 2021 ft | 243 kts | 321° |
| 2026-04-24 23:17 | 32.78060 | -80.22853 | 2041 ft | 245 kts | 316° |
| 2026-04-24 23:17 | 32.79301 | -80.24211 | 2203 ft | 241 kts | 318° |
| 2026-04-24 23:18 | 32.80543 | -80.25559 | 2236 ft | 243 kts | 317° |
| 2026-04-24 23:18 | 32.81796 | -80.26884 | 2258 ft | 245 kts | 319° |
| 2026-04-24 23:18 | 32.83095 | -80.28223 | 2277 ft | 247 kts | 319° |
| 2026-04-24 23:18 | 32.84393 | -80.29559 | 2300 ft | 247 kts | 319° |
| 2026-04-24 23:19 | 32.85430 | -80.31132 | 2293 ft | 246 kts | 291° |
| 2026-04-24 23:19 | 32.85833 | -80.33124 | 2227 ft | 246 kts | 290° |
| 2026-04-24 23:19 | 32.87020 | -80.34505 | 2285 ft | 248 kts | 334° |
| 2026-04-24 23:19 | 32.88582 | -80.35388 | 2082 ft | 252 kts | 320° |
| 2026-04-24 23:20 | 32.89880 | -80.36791 | 2115 ft | 249 kts | 317° |
| 2026-04-24 23:20 | 32.91171 | -80.38147 | 2217 ft | 246 kts | 319° |
| 2026-04-24 23:20 | 32.92420 | -80.39525 | 2313 ft | 244 kts | 316° |
| 2026-04-24 23:20 | 32.93326 | -80.41179 | 2380 ft | 242 kts | 284° |
| 2026-04-24 23:21 | 32.93310 | -80.43185 | 2351 ft | 245 kts | 262° |
| 2026-04-24 23:21 | 32.93190 | -80.45197 | 2470 ft | 242 kts | 275° |
| 2026-04-24 23:21 | 32.93804 | -80.47016 | 2526 ft | 242 kts | 299° |
| 2026-04-24 23:21 | 32.94291 | -80.48903 | 2812 ft | 232 kts | 278° |
| 2026-04-24 23:22 | 32.94298 | -80.50771 | 3252 ft | 224 kts | 262° |
| 2026-04-24 23:22 | 32.94071 | -80.52663 | 3155 ft | 237 kts | 277° |
| 2026-04-24 23:22 | 32.94425 | -80.54590 | 3153 ft | 242 kts | 285° |
| 2026-04-24 23:22 | 32.94886 | -80.56559 | 3029 ft | 250 kts | 288° |
| 2026-04-24 23:23 | 32.95254 | -80.57866 | 2945 ft | 253 kts | 290° |
| 2026-04-24 23:23 | 32.95881 | -80.59836 | 2826 ft | 255 kts | 292° |
| 2026-04-24 23:23 | 32.96569 | -80.61797 | 2702 ft | 257 kts | 294° |
| 2026-04-24 23:23 | 32.97128 | -80.63814 | 2561 ft | 257 kts | 281° |
| 2026-04-24 23:24 | 32.97379 | -80.65920 | 2494 ft | 255 kts | 277° |
| 2026-04-24 23:24 | 32.97591 | -80.68000 | 2560 ft | 250 kts | 277° |
| 2026-04-24 23:24 | 32.97795 | -80.70047 | 2589 ft | 249 kts | 277° |
| 2026-04-24 23:24 | 32.97999 | -80.72096 | 2591 ft | 249 kts | 277° |
| 2026-04-24 23:25 | 32.98202 | -80.74143 | 2592 ft | 249 kts | 277° |
| 2026-04-24 23:25 | 32.98204 | -80.76183 | 2674 ft | 245 kts | 259° |
| 2026-04-24 23:25 | 32.97891 | -80.78194 | 2610 ft | 249 kts | 265° |
| 2026-04-24 23:25 | 32.97693 | -80.80223 | 2689 ft | 246 kts | 262° |
| 2026-04-24 23:26 | 32.97375 | -80.82197 | 2916 ft | 239 kts | 255° |
| 2026-04-24 23:26 | 32.96766 | -80.84046 | 2934 ft | 244 kts | 246° |
| 2026-04-24 23:26 | 32.96081 | -80.85912 | 2891 ft | 248 kts | 248° |
| 2026-04-24 23:26 | 32.95365 | -80.87731 | 3087 ft | 242 kts | 243° |
| 2026-04-24 23:27 | 32.94306 | -80.89233 | 3319 ft | 237 kts | 213° |
| 2026-04-24 23:27 | 32.92706 | -80.89635 | 3310 ft | 248 kts | 176° |
| 2026-04-24 23:27 | 32.90955 | -80.89337 | 3105 ft | 257 kts | 176° |
| 2026-04-24 23:27 | 32.89198 | -80.89610 | 2977 ft | 258 kts | 204° |
| 2026-04-24 23:28 | 32.87469 | -80.90185 | 2778 ft | 262 kts | 184° |
| 2026-04-24 23:28 | 32.85660 | -80.89870 | 2736 ft | 260 kts | 168° |
| 2026-04-24 23:28 | 32.83928 | -80.89607 | 3025 ft | 248 kts | 183° |
| 2026-04-24 23:28 | 32.82198 | -80.89792 | 3021 ft | 249 kts | 182° |
| 2026-04-24 23:29 | 32.80458 | -80.89745 | 2975 ft | 253 kts | 182° |
| 2026-04-24 23:29 | 32.78723 | -80.89817 | 3136 ft | 248 kts | 185° |
| 2026-04-24 23:29 | 32.76981 | -80.89970 | 3039 ft | 253 kts | 187° |
| 2026-04-24 23:29 | 32.75210 | -80.90106 | 2929 ft | 257 kts | 180° |
| 2026-04-24 23:30 | 32.73426 | -80.90048 | 2890 ft | 256 kts | 181° |
| 2026-04-24 23:30 | 32.71643 | -80.90009 | 2903 ft | 254 kts | 179° |
| 2026-04-24 23:30 | 32.69874 | -80.89984 | 2837 ft | 256 kts | 182° |
| 2026-04-24 23:30 | 32.68079 | -80.90026 | 2639 ft | 260 kts | 184° |
| 2026-04-24 23:31 | 32.65885 | -80.90088 | 2452 ft | 262 kts | 185° |